Time;durP1;ratioP1;P1;durP2;ratioP2;P2;SDS_P1;SDS_P2;PMS_P1;PMS_P2;Temp;Humidity;BMP_temperature;BMP_pressure;BME280_temperature;BME280_humidity;BME280_pressure;Samples;Min_cycle;Max_cycle;Signal;HPM_P1;HPM_P2
2024/01/13 00:01:53;;;;;;;16.02;8.80;;;0.70;99.90;;;;;;5105123;28;20025;-88
2024/01/13 00:04:19;;;;;;;17.48;9.13;;;0.80;99.90;;;;;;5115828;27;20081;-88
2024/01/13 00:06:44;;;;;;;17.17;9.25;;;0.80;99.90;;;;;;5103257;28;20125;-87
2024/01/13 00:09:10;;;;;;;19.30;9.48;;;0.80;99.90;;;;;;5102449;28;20114;-88
2024/01/13 00:11:36;;;;;;;15.75;9.98;;;0.80;99.90;;;;;;5104218;28;20016;-87
2024/01/13 00:14:02;;;;;;;21.98;9.80;;;0.80;99.90;;;;;;5104527;28;20036;-87
2024/01/13 00:16:28;;;;;;;16.05;9.27;;;0.80;99.90;;;;;;5104551;28;20020;-86
2024/01/13 00:18:53;;;;;;;15.40;8.85;;;0.80;99.90;;;;;;5104727;28;20028;-87
2024/01/13 00:21:19;;;;;;;14.25;7.93;;;0.80;99.90;;;;;;5104017;28;20485;-87
2024/01/13 00:23:45;;;;;;;19.65;9.75;;;0.80;99.90;;;;;;5100456;28;20326;-88
2024/01/13 00:26:10;;;;;;;16.23;9.05;;;0.80;99.90;;;;;;5104839;28;20040;-87
2024/01/13 00:28:36;;;;;;;16.98;9.25;;;0.80;99.90;;;;;;5101741;28;20027;-87
2024/01/13 00:31:02;;;;;;;12.48;7.40;;;0.80;99.90;;;;;;5103754;28;20028;-87
2024/01/13 00:33:29;;;;;;;10.27;6.53;;;0.70;99.90;;;;;;5100576;28;20054;-87
2024/01/13 00:35:55;;;;;;;10.63;7.00;;;0.80;99.90;;;;;;5100685;28;20023;-88
2024/01/13 00:38:20;;;;;;;10.85;6.32;;;0.80;99.90;;;;;;5106314;28;20026;-87
2024/01/13 00:40:46;;;;;;;11.10;6.53;;;0.80;99.90;;;;;;5101977;28;20016;-87
2024/01/13 00:43:11;;;;;;;11.90;6.68;;;0.90;99.90;;;;;;5101583;28;20074;-87
2024/01/13 00:45:37;;;;;;;11.38;5.72;;;0.90;99.90;;;;;;5100172;28;20243;-86
2024/01/13 00:48:03;;;;;;;9.70;6.30;;;0.90;99.90;;;;;;5099012;28;20123;-87
2024/01/13 00:50:29;;;;;;;13.43;7.47;;;0.90;99.90;;;;;;5101373;28;20016;-87
2024/01/13 00:52:55;;;;;;;9.23;6.07;;;0.90;99.90;;;;;;5103982;28;20062;-87
2024/01/13 00:55:20;;;;;;;9.98;5.80;;;0.90;99.90;;;;;;5098741;28;20057;-86
2024/01/13 00:57:46;;;;;;;16.45;6.45;;;0.90;99.90;;;;;;5103708;28;20131;-87
2024/01/13 01:00:12;;;;;;;14.05;5.97;;;1.00;99.90;;;;;;5100697;28;20397;-87
2024/01/13 01:02:38;;;;;;;11.48;6.55;;;1.00;99.90;;;;;;5100776;28;20020;-87
2024/01/13 01:05:04;;;;;;;9.75;6.25;;;1.00;99.90;;;;;;5102539;28;20028;-88
2024/01/13 01:07:32;;;;;;;12.88;6.95;;;1.00;99.90;;;;;;5100216;28;20366;-87
2024/01/13 01:09:57;;;;;;;14.45;6.85;;;1.00;99.90;;;;;;5102759;28;20077;-88
2024/01/13 01:12:23;;;;;;;9.88;5.50;;;1.00;99.90;;;;;;5100704;28;20066;-87
2024/01/13 01:14:49;;;;;;;10.45;5.43;;;0.90;99.90;;;;;;5104729;28;20099;-85
2024/01/13 01:17:15;;;;;;;10.13;4.93;;;0.90;99.90;;;;;;5103454;28;20079;-88
2024/01/13 01:19:40;;;;;;;9.00;5.60;;;1.00;99.90;;;;;;5100215;28;20481;-87
2024/01/13 01:22:06;;;;;;;6.82;3.55;;;1.00;99.90;;;;;;5101027;28;20513;-87
2024/01/13 01:24:32;;;;;;;8.52;4.97;;;1.00;99.90;;;;;;5097837;28;20111;-88
2024/01/13 01:26:57;;;;;;;8.75;5.10;;;1.10;99.90;;;;;;5101865;28;20028;-87
2024/01/13 01:29:23;;;;;;;7.32;4.72;;;1.10;99.90;;;;;;5103593;28;20548;-87
2024/01/13 01:31:49;;;;;;;6.97;4.78;;;1.10;99.90;;;;;;5105992;28;20538;-88
2024/01/13 01:34:16;;;;;;;8.00;4.70;;;1.10;99.90;;;;;;5102632;28;20032;-88
2024/01/13 01:36:42;;;;;;;8.45;5.40;;;1.20;99.90;;;;;;5098465;28;20020;-88
2024/01/13 01:39:09;;;;;;;6.72;4.85;;;1.20;99.90;;;;;;5097238;28;20400;-89
2024/01/13 01:41:36;;;;;;;7.22;4.45;;;1.20;99.90;;;;;;5098906;28;20074;-87
2024/01/13 01:44:02;;;;;;;9.57;5.72;;;1.20;99.90;;;;;;5097906;28;20016;-88
2024/01/13 01:46:30;;;;;;;7.70;5.10;;;1.30;99.90;;;;;;5100506;28;20127;-87
2024/01/13 01:48:58;;;;;;;8.15;5.43;;;1.30;99.90;;;;;;5098960;28;20021;-88
2024/01/13 01:51:28;;;;;;;8.15;5.40;;;1.30;99.90;;;;;;5100317;28;20047;-87
2024/01/13 01:53:55;;;;;;;10.45;5.07;;;1.30;99.90;;;;;;5103089;28;20028;-87
2024/01/13 01:56:26;;;;;;;7.50;4.68;;;1.20;99.90;;;;;;5103842;28;20081;-87
2024/01/13 01:58:54;;;;;;;7.72;4.97;;;1.20;99.90;;;;;;5101935;28;20029;-87
2024/01/13 02:01:21;;;;;;;7.15;5.05;;;1.10;99.90;;;;;;5100968;28;20027;-86
2024/01/13 02:03:48;;;;;;;7.93;5.18;;;1.10;99.90;;;;;;5102031;28;20036;-86
2024/01/13 02:06:14;;;;;;;7.45;4.55;;;1.10;99.90;;;;;;5102166;28;20019;-87
2024/01/13 02:08:40;;;;;;;7.20;3.60;;;1.00;99.90;;;;;;5101550;28;20024;-87
2024/01/13 02:11:07;;;;;;;5.70;3.90;;;1.00;99.90;;;;;;5102115;28;20473;-87
2024/01/13 02:13:33;;;;;;;5.63;4.03;;;1.10;99.90;;;;;;5109604;28;20039;-88
2024/01/13 02:15:59;;;;;;;7.15;4.38;;;1.10;99.90;;;;;;5103652;28;20114;-88
2024/01/13 02:18:25;;;;;;;6.43;4.75;;;1.20;99.90;;;;;;5105769;28;20016;-88
2024/01/13 02:20:50;;;;;;;5.82;3.88;;;1.20;99.90;;;;;;5105860;28;20030;-87
2024/01/13 02:23:16;;;;;;;5.57;4.13;;;1.30;99.90;;;;;;5088739;28;20085;-87
2024/01/13 02:25:42;;;;;;;5.65;4.50;;;1.30;99.90;;;;;;5089063;28;20038;-85
2024/01/13 02:28:07;;;;;;;6.22;3.97;;;1.30;99.90;;;;;;5087637;28;20185;-86
2024/01/13 02:30:34;;;;;;;9.63;4.65;;;1.30;99.90;;;;;;5087811;28;20035;-86
2024/01/13 02:33:00;;;;;;;6.05;4.32;;;1.30;99.90;;;;;;5088899;28;20548;-86
2024/01/13 02:35:26;;;;;;;7.53;4.32;;;1.30;99.90;;;;;;5087293;28;20016;-86
2024/01/13 02:37:52;;;;;;;5.90;4.28;;;1.20;99.90;;;;;;5087229;28;20119;-87
2024/01/13 02:40:18;;;;;;;5.45;4.22;;;1.20;99.90;;;;;;5088943;28;20016;-88
2024/01/13 02:42:44;;;;;;;6.20;4.30;;;1.30;99.90;;;;;;5105189;28;20024;-86
2024/01/13 02:45:09;;;;;;;7.18;4.18;;;1.30;99.90;;;;;;5089120;28;20496;-87
2024/01/13 02:47:53;;;;;;;10.27;4.45;;;1.30;99.90;;;;;;5086946;28;20046;-87
2024/01/13 02:50:19;;;;;;;5.90;4.15;;;1.50;99.90;;;;;;5085237;28;20028;-86
2024/01/13 02:52:47;;;;;;;6.85;3.30;;;1.60;99.90;;;;;;5109208;28;20015;-86
2024/01/13 02:55:12;;;;;;;5.70;3.22;;;1.70;99.90;;;;;;5088195;28;20493;-86
2024/01/13 02:57:38;;;;;;;7.57;4.03;;;1.80;99.90;;;;;;5106586;28;20031;-87
2024/01/13 03:00:05;;;;;;;7.50;3.42;;;1.90;99.90;;;;;;5085004;28;20465;-86
2024/01/13 03:02:31;;;;;;;5.18;3.92;;;2.00;99.90;;;;;;5086958;28;20505;-87
2024/01/13 03:04:57;;;;;;;4.50;3.60;;;2.00;99.90;;;;;;5086635;28;20077;-87
2024/01/13 03:07:26;;;;;;;5.05;3.70;;;2.10;99.90;;;;;;5086634;28;20434;-86
2024/01/13 03:09:51;;;;;;;7.20;3.60;;;2.10;99.90;;;;;;5084375;28;20118;-87
2024/01/13 03:12:17;;;;;;;6.72;3.95;;;2.20;99.90;;;;;;5088283;28;20054;-86
2024/01/13 03:14:43;;;;;;;6.13;4.43;;;2.20;99.90;;;;;;5088131;28;20104;-87
2024/01/13 03:17:08;;;;;;;6.50;4.13;;;2.30;99.90;;;;;;5085257;28;20019;-87
2024/01/13 03:19:34;;;;;;;6.80;4.43;;;2.30;99.90;;;;;;5090376;28;20307;-87
2024/01/13 03:22:00;;;;;;;7.13;4.50;;;2.40;99.90;;;;;;5097234;28;20051;-87
2024/01/13 03:24:25;;;;;;;10.73;4.88;;;2.40;99.90;;;;;;5102462;28;20024;-87
2024/01/13 03:26:51;;;;;;;6.35;4.45;;;2.50;99.90;;;;;;5103694;28;20036;-86
2024/01/13 03:29:17;;;;;;;5.15;3.60;;;2.50;99.90;;;;;;5104314;28;20069;-86
2024/01/13 03:31:42;;;;;;;8.27;4.90;;;2.50;99.90;;;;;;5105410;28;20477;-86
2024/01/13 03:34:08;;;;;;;5.43;3.67;;;2.60;99.90;;;;;;5103297;28;20080;-86
2024/01/13 03:36:34;;;;;;;5.30;3.80;;;2.60;99.90;;;;;;5101667;28;20528;-87
2024/01/13 03:38:59;;;;;;;4.93;3.50;;;2.50;99.90;;;;;;5104501;28;20538;-87
2024/01/13 03:41:25;;;;;;;2.88;2.55;;;2.50;99.90;;;;;;5104934;28;20027;-87
2024/01/13 03:43:52;;;;;;;3.03;2.72;;;2.50;99.90;;;;;;5102875;28;20032;-87
2024/01/13 03:46:18;;;;;;;4.95;3.00;;;2.60;99.90;;;;;;5101252;28;20031;-88
2024/01/13 03:48:44;;;;;;;6.38;2.42;;;2.60;99.90;;;;;;5106893;28;20020;-87
2024/01/13 03:51:10;;;;;;;2.72;1.98;;;2.60;99.90;;;;;;5101220;28;20055;-87
2024/01/13 03:53:36;;;;;;;1.92;1.73;;;2.60;99.90;;;;;;5103844;28;20024;-86
2024/01/13 03:56:04;;;;;;;2.85;1.50;;;2.60;99.90;;;;;;5104066;28;20018;-87
2024/01/13 03:58:29;;;;;;;2.03;1.80;;;2.60;99.90;;;;;;5103936;28;20543;-87
2024/01/13 04:00:55;;;;;;;1.25;1.15;;;2.60;99.90;;;;;;5101195;28;20111;-86
2024/01/13 04:03:21;;;;;;;1.52;1.40;;;2.60;99.90;;;;;;5104866;28;20020;-86
2024/01/13 04:05:47;;;;;;;1.38;1.27;;;2.50;99.90;;;;;;5102333;28;20029;-86
2024/01/13 04:08:13;;;;;;;1.40;1.30;;;2.50;99.90;;;;;;5102471;28;20020;-86
2024/01/13 04:10:38;;;;;;;1.52;1.00;;;2.50;99.90;;;;;;5100919;28;20491;-86
2024/01/13 04:13:09;;;;;;;2.65;1.08;;;2.50;99.90;;;;;;5101483;28;20055;-87
2024/01/13 04:15:34;;;;;;;3.03;1.10;;;2.50;99.90;;;;;;5112814;28;20024;-86
2024/01/13 04:18:00;;;;;;;1.15;1.00;;;2.50;99.90;;;;;;5099995;28;20161;-86
2024/01/13 04:20:26;;;;;;;1.40;0.93;;;2.50;99.90;;;;;;5102176;28;20389;-86
2024/01/13 04:22:51;;;;;;;1.77;1.27;;;2.50;99.90;;;;;;5102146;28;20052;-87
2024/01/13 04:25:17;;;;;;;6.82;1.48;;;2.50;99.90;;;;;;5100621;28;20384;-86
2024/01/13 04:27:43;;;;;;;2.42;1.10;;;2.50;99.90;;;;;;5103283;28;20473;-86
2024/01/13 04:30:09;;;;;;;1.02;0.90;;;2.60;99.90;;;;;;5102097;28;20027;-85
2024/01/13 04:32:34;;;;;;;1.08;0.82;;;2.60;99.90;;;;;;5103972;28;20068;-86
2024/01/13 04:35:00;;;;;;;1.80;0.88;;;2.60;99.90;;;;;;5100734;28;20054;-86
2024/01/13 04:37:26;;;;;;;1.35;1.00;;;2.60;99.90;;;;;;5103129;28;20476;-86
2024/01/13 04:39:52;;;;;;;2.67;0.95;;;2.60;99.90;;;;;;5102519;28;20027;-86
2024/01/13 04:42:18;;;;;;;0.68;0.68;;;2.60;99.90;;;;;;5106752;28;20039;-85
2024/01/13 04:44:44;;;;;;;0.90;0.90;;;2.60;99.90;;;;;;5103001;28;20366;-85
2024/01/13 04:47:10;;;;;;;1.67;0.80;;;2.70;99.90;;;;;;5100111;28;20046;-86
2024/01/13 04:49:36;;;;;;;1.77;0.70;;;2.60;99.90;;;;;;5104338;28;20031;-85
2024/01/13 04:52:02;;;;;;;0.80;0.80;;;2.70;99.90;;;;;;5102481;28;20027;-86
2024/01/13 04:54:27;;;;;;;0.77;0.70;;;2.70;99.90;;;;;;5101518;28;20073;-86
2024/01/13 04:56:53;;;;;;;0.90;0.60;;;2.70;99.90;;;;;;5103086;28;20024;-87
2024/01/13 04:59:19;;;;;;;0.60;0.60;;;2.70;99.90;;;;;;5102570;28;20103;-86
2024/01/13 05:01:44;;;;;;;1.38;0.85;;;2.70;99.90;;;;;;5105110;28;20024;-86
2024/01/13 05:04:10;;;;;;;1.23;0.70;;;2.70;99.90;;;;;;5103827;28;20481;-85
2024/01/13 05:06:36;;;;;;;1.52;0.65;;;2.80;99.90;;;;;;5102769;28;20390;-86
2024/01/13 05:09:02;;;;;;;0.85;0.60;;;2.70;99.90;;;;;;5099124;28;20028;-86
2024/01/13 05:11:28;;;;;;;0.95;0.60;;;2.70;99.90;;;;;;5101632;28;20026;-86
2024/01/13 05:13:54;;;;;;;2.50;0.70;;;2.70;99.90;;;;;;5101265;28;20032;-86
2024/01/13 05:16:19;;;;;;;0.63;0.55;;;2.70;99.90;;;;;;5102850;28;20016;-86
2024/01/13 05:18:45;;;;;;;1.73;0.55;;;2.60;99.90;;;;;;5102522;28;20392;-86
2024/01/13 05:21:11;;;;;;;0.75;0.55;;;2.60;99.90;;;;;;5102624;28;20035;-87
2024/01/13 05:23:36;;;;;;;0.57;0.57;;;2.60;99.90;;;;;;5099890;28;20045;-86
2024/01/13 05:26:02;;;;;;;1.38;0.75;;;2.50;99.90;;;;;;5102313;28;20417;-86
2024/01/13 05:28:28;;;;;;;2.38;0.75;;;2.50;99.90;;;;;;5100775;28;20028;-86
2024/01/13 05:30:54;;;;;;;0.88;0.70;;;2.50;99.90;;;;;;5100962;28;20023;-86
2024/01/13 05:33:19;;;;;;;3.35;0.73;;;2.50;99.90;;;;;;5102720;28;20035;-87
2024/01/13 05:35:45;;;;;;;1.40;0.60;;;2.50;99.90;;;;;;5102240;28;20039;-86
2024/01/13 05:38:11;;;;;;;2.30;0.70;;;2.50;99.90;;;;;;5101340;28;20503;-86
2024/01/13 05:40:40;;;;;;;1.83;0.75;;;2.50;99.90;;;;;;5100231;28;20050;-86
2024/01/13 05:43:07;;;;;;;1.35;0.65;;;2.50;99.90;;;;;;5101754;28;20051;-85
2024/01/13 05:45:33;;;;;;;0.90;0.63;;;2.50;99.90;;;;;;5100764;28;20401;-87
2024/01/13 05:47:59;;;;;;;1.73;0.77;;;2.50;99.90;;;;;;5100011;28;20040;-87
2024/01/13 05:50:25;;;;;;;3.88;1.13;;;2.50;99.90;;;;;;5103079;28;20031;-86
2024/01/13 05:52:50;;;;;;;2.30;0.60;;;2.40;99.90;;;;;;5100117;28;20024;-86
2024/01/13 05:55:16;;;;;;;1.13;0.88;;;2.40;99.90;;;;;;5100099;28;20027;-86
2024/01/13 05:57:42;;;;;;;1.17;0.80;;;2.40;99.90;;;;;;5099080;28;20030;-87
2024/01/13 06:00:09;;;;;;;0.75;0.60;;;2.40;99.90;;;;;;5100506;28;20028;-85
2024/01/13 06:02:35;;;;;;;4.18;1.05;;;2.40;99.90;;;;;;5100030;28;20032;-86
2024/01/13 06:05:01;;;;;;;2.28;1.15;;;2.40;99.90;;;;;;5099938;28;20020;-85
2024/01/13 06:07:26;;;;;;;1.98;0.90;;;2.40;99.90;;;;;;5101380;28;20088;-86
2024/01/13 06:09:52;;;;;;;2.92;0.93;;;2.40;99.90;;;;;;5102251;28;20034;-85
2024/01/13 06:12:18;;;;;;;3.17;1.05;;;2.40;99.90;;;;;;5101397;28;20059;-86
2024/01/13 06:14:43;;;;;;;1.63;1.52;;;2.40;99.90;;;;;;5099656;28;20426;-86
2024/01/13 06:17:09;;;;;;;3.65;1.77;;;2.40;99.90;;;;;;5101109;28;20016;-86
2024/01/13 06:19:35;;;;;;;1.33;1.23;;;2.40;99.90;;;;;;5101121;28;20417;-86
2024/01/13 06:22:01;;;;;;;1.75;1.48;;;2.40;99.90;;;;;;5103222;28;20052;-86
2024/01/13 06:24:27;;;;;;;4.32;1.50;;;2.40;99.90;;;;;;5076765;28;20067;-87
2024/01/13 06:26:52;;;;;;;2.28;1.30;;;2.40;99.90;;;;;;5074009;28;20497;-85
2024/01/13 06:29:18;;;;;;;4.43;1.50;;;2.30;99.90;;;;;;5073869;28;20035;-86
2024/01/13 06:31:44;;;;;;;2.10;1.88;;;2.30;99.90;;;;;;5074080;28;20081;-87
2024/01/13 06:34:10;;;;;;;1.90;1.45;;;2.20;99.90;;;;;;5073472;28;20032;-86
2024/01/13 06:36:35;;;;;;;3.70;1.70;;;2.20;99.90;;;;;;5073514;28;20496;-86
2024/01/13 06:39:01;;;;;;;2.22;1.40;;;2.20;99.90;;;;;;5091187;28;20032;-87
2024/01/13 06:41:27;;;;;;;2.35;1.88;;;2.20;99.90;;;;;;5073615;28;20103;-86
2024/01/13 06:43:53;;;;;;;4.68;1.45;;;2.20;99.90;;;;;;5073849;28;20077;-87
2024/01/13 06:46:18;;;;;;;1.85;1.40;;;2.20;99.90;;;;;;5099548;28;20032;-87
2024/01/13 06:48:45;;;;;;;2.45;1.40;;;2.20;99.90;;;;;;5083611;28;20494;-86
2024/01/13 06:51:11;;;;;;;2.20;1.88;;;2.20;99.90;;;;;;5099350;28;20028;-87
2024/01/13 06:53:39;;;;;;;2.42;1.90;;;2.20;99.90;;;;;;5084292;28;20024;-86
2024/01/13 06:56:05;;;;;;;3.05;2.30;;;2.20;99.90;;;;;;5082842;28;20043;-87
2024/01/13 06:58:31;;;;;;;3.28;2.00;;;2.20;99.90;;;;;;5102003;28;20127;-87
2024/01/13 07:00:58;;;;;;;3.75;2.13;;;2.20;99.90;;;;;;5084968;28;20544;-87
2024/01/13 07:03:23;;;;;;;4.65;2.40;;;2.20;99.90;;;;;;5088057;28;20112;-85
2024/01/13 07:05:49;;;;;;;3.53;2.30;;;2.20;99.90;;;;;;5083599;28;20124;-86
2024/01/13 07:08:15;;;;;;;2.80;1.95;;;2.20;99.90;;;;;;5087792;28;20027;-87
2024/01/13 07:10:41;;;;;;;2.90;1.85;;;2.20;99.90;;;;;;5085629;28;20560;-86
2024/01/13 07:13:06;;;;;;;3.92;2.50;;;2.10;99.90;;;;;;5084776;28;20625;-86
2024/01/13 07:15:32;;;;;;;5.05;2.58;;;2.10;99.90;;;;;;5089619;28;20023;-85
2024/01/13 07:18:00;;;;;;;4.63;2.78;;;2.10;99.90;;;;;;5086104;28;20081;-86
2024/01/13 07:20:26;;;;;;;5.15;2.60;;;2.10;99.90;;;;;;5084499;28;20107;-85
2024/01/13 07:22:53;;;;;;;4.88;2.35;;;2.10;99.90;;;;;;5089254;28;20075;-85
2024/01/13 07:25:19;;;;;;;4.70;2.42;;;2.10;99.90;;;;;;5088562;28;20032;-86
2024/01/13 07:27:44;;;;;;;3.97;2.20;;;2.10;99.90;;;;;;5090074;28;20469;-85
2024/01/13 07:30:11;;;;;;;5.60;3.13;;;2.10;99.90;;;;;;5085341;28;20035;-86
2024/01/13 07:32:37;;;;;;;14.23;5.10;;;2.10;99.90;;;;;;5085928;28;20027;-85
2024/01/13 07:35:03;;;;;;;11.85;5.00;;;2.10;99.90;;;;;;5086813;28;20027;-85
2024/01/13 07:37:28;;;;;;;6.35;3.17;;;2.10;99.90;;;;;;5087355;28;20027;-86
2024/01/13 07:39:54;;;;;;;5.20;2.00;;;2.10;99.90;;;;;;5090264;28;20047;-86
2024/01/13 07:42:20;;;;;;;2.97;2.13;;;2.10;99.90;;;;;;5085210;28;20035;-87
2024/01/13 07:44:45;;;;;;;2.05;1.45;;;2.10;99.90;;;;;;5086901;28;20012;-85
2024/01/13 07:47:11;;;;;;;2.10;1.58;;;2.20;99.90;;;;;;5084818;28;20022;-87
2024/01/13 07:49:37;;;;;;;2.55;1.75;;;2.20;99.90;;;;;;5086778;28;20050;-87
2024/01/13 07:52:03;;;;;;;3.35;2.05;;;2.20;99.90;;;;;;5086935;28;20035;-87
2024/01/13 07:54:28;;;;;;;4.68;3.35;;;2.20;99.90;;;;;;5084584;28;20044;-86
2024/01/13 07:56:54;;;;;;;5.93;2.35;;;2.30;99.90;;;;;;5085952;28;20121;-85
2024/01/13 07:59:21;;;;;;;4.93;2.50;;;2.30;99.90;;;;;;5083541;28;20019;-85
2024/01/13 08:01:47;;;;;;;5.00;2.55;;;2.30;99.90;;;;;;5086635;28;20025;-87
2024/01/13 08:04:15;;;;;;;4.22;2.58;;;2.40;99.90;;;;;;5086251;28;20361;-85
2024/01/13 08:06:41;;;;;;;4.82;2.67;;;2.40;99.90;;;;;;5083928;28;20110;-85
2024/01/13 08:09:07;;;;;;;7.10;3.13;;;2.40;99.90;;;;;;5083773;28;20016;-85
2024/01/13 08:11:33;;;;;;;4.55;2.95;;;2.50;99.90;;;;;;5087223;28;20449;-86
2024/01/13 08:14:00;;;;;;;9.57;2.88;;;2.50;99.90;;;;;;5087343;28;20032;-85
2024/01/13 08:16:27;;;;;;;6.72;3.58;;;2.50;99.90;;;;;;5087078;28;20103;-85
2024/01/13 08:18:52;;;;;;;5.22;3.38;;;2.50;99.90;;;;;;5085441;28;20024;-84
2024/01/13 08:21:18;;;;;;;4.45;2.83;;;2.50;99.90;;;;;;5093032;28;20061;-85
2024/01/13 08:23:44;;;;;;;6.38;3.10;;;2.50;99.90;;;;;;5111332;28;20027;-85
2024/01/13 08:26:10;;;;;;;6.97;3.45;;;2.60;99.90;;;;;;5093465;28;20465;-86
2024/01/13 08:28:35;;;;;;;8.38;3.42;;;2.60;99.90;;;;;;5092676;28;20370;-85
2024/01/13 08:31:01;;;;;;;7.13;3.47;;;2.60;99.90;;;;;;5092568;28;20362;-85
2024/01/13 08:33:27;;;;;;;6.03;3.35;;;2.60;99.90;;;;;;5092030;28;20032;-85
2024/01/13 08:35:52;;;;;;;7.55;3.10;;;2.60;99.90;;;;;;5091791;28;20066;-85
2024/01/13 08:38:18;;;;;;;5.43;3.10;;;2.70;99.90;;;;;;5091313;28;20031;-85
2024/01/13 08:40:45;;;;;;;4.88;2.70;;;2.70;99.90;;;;;;5104284;28;20468;-85
2024/01/13 08:43:11;;;;;;;5.18;2.95;;;2.80;99.90;;;;;;5102398;28;20019;-85
2024/01/13 08:45:37;;;;;;;6.65;2.88;;;2.80;99.90;;;;;;5104061;28;20023;-84
2024/01/13 08:48:03;;;;;;;5.10;3.28;;;2.90;99.90;;;;;;5101103;28;20020;-86
2024/01/13 08:50:31;;;;;;;8.38;4.10;;;2.90;99.90;;;;;;5103500;28;20016;-84
2024/01/13 08:52:57;;;;;;;4.10;2.60;;;3.00;99.90;;;;;;5102593;28;20122;-85
2024/01/13 08:55:24;;;;;;;9.50;3.60;;;3.00;99.90;;;;;;5100785;28;20541;-86
2024/01/13 08:57:50;;;;;;;6.05;3.10;;;3.10;99.90;;;;;;5100201;28;20477;-85
2024/01/13 09:00:16;;;;;;;9.73;3.67;;;3.10;99.90;;;;;;5101346;28;20586;-85
2024/01/13 09:02:43;;;;;;;7.78;3.70;;;3.20;99.90;;;;;;5100678;28;20477;-84
2024/01/13 09:05:09;;;;;;;6.72;3.70;;;3.20;99.90;;;;;;5108833;28;20019;-85
2024/01/13 09:07:36;;;;;;;6.45;3.72;;;3.20;99.90;;;;;;5109843;28;21408;-86
2024/01/13 09:10:02;;;;;;;6.72;4.03;;;3.30;99.90;;;;;;5107924;28;20145;-86
2024/01/13 09:12:28;;;;;;;6.15;3.83;;;3.30;99.90;;;;;;5108872;28;20480;-85
2024/01/13 09:14:54;;;;;;;6.38;3.85;;;3.40;99.90;;;;;;5109946;28;20023;-86
2024/01/13 09:17:20;;;;;;;8.02;3.70;;;3.40;99.90;;;;;;5109728;28;20029;-85
2024/01/13 09:19:45;;;;;;;6.93;3.65;;;3.50;99.90;;;;;;5109603;28;20031;-86
2024/01/13 09:22:11;;;;;;;7.53;4.40;;;3.50;99.90;;;;;;5108865;28;20055;-83
2024/01/13 09:24:37;;;;;;;8.95;4.90;;;3.60;99.90;;;;;;5109643;28;20406;-86
2024/01/13 09:27:03;;;;;;;10.30;4.68;;;3.70;99.90;;;;;;5108997;28;20370;-87
2024/01/13 09:29:29;;;;;;;7.82;4.90;;;3.70;99.90;;;;;;5108663;28;20115;-85
2024/01/13 09:31:55;;;;;;;10.70;4.70;;;3.90;99.90;;;;;;5109343;28;20106;-84
2024/01/13 09:34:21;;;;;;;13.77;5.32;;;4.00;99.90;;;;;;5110177;28;20031;-85
2024/01/13 09:36:47;;;;;;;8.38;4.30;;;4.10;99.90;;;;;;5109627;28;20024;-85
2024/01/13 09:39:14;;;;;;;6.65;4.05;;;4.30;99.90;;;;;;5107987;28;20026;-85
2024/01/13 09:41:44;;;;;;;6.57;3.33;;;4.50;99.90;;;;;;5108053;28;20085;-86
2024/01/13 09:44:25;;;;;;;6.00;3.30;;;4.80;99.90;;;;;;5109127;28;20018;-87
2024/01/13 09:46:52;;;;;;;;;;;5.00;99.90;;;;;;5109354;28;20437;-87
2024/01/13 09:49:19;;;;;;;5.43;3.30;;;5.20;99.90;;;;;;5109075;28;20365;-85
2024/01/13 09:51:45;;;;;;;5.25;3.08;;;5.40;99.90;;;;;;5109683;28;20051;-86
2024/01/13 09:54:17;;;;;;;4.93;3.25;;;5.50;99.90;;;;;;5108671;28;20039;-87
2024/01/13 09:56:46;;;;;;;6.90;2.90;;;5.50;99.90;;;;;;5108341;28;20023;-87
2024/01/13 09:59:12;;;;;;;6.45;3.30;;;5.50;99.90;;;;;;5110159;28;20023;-86
2024/01/13 10:01:39;;;;;;;8.82;3.67;;;5.50;99.90;;;;;;5105871;28;20024;-87
2024/01/13 10:04:05;;;;;;;8.55;4.10;;;5.40;99.90;;;;;;5099736;28;20111;-87
2024/01/13 10:06:32;;;;;;;8.77;4.50;;;5.40;99.90;;;;;;5100966;28;20029;-86
2024/01/13 10:08:58;;;;;;;8.70;4.00;;;5.40;99.90;;;;;;5105471;28;20032;-87
2024/01/13 10:11:24;;;;;;;9.70;4.20;;;5.40;99.90;;;;;;5109969;28;20031;-87
2024/01/13 10:14:07;;;;;;;7.68;4.20;;;5.40;99.90;;;;;;5102776;28;20105;-88
2024/01/13 10:16:35;;;;;;;8.07;3.85;;;5.40;99.90;;;;;;5090140;28;20028;-87
2024/01/13 10:19:02;;;;;;;10.18;4.93;;;5.40;99.90;;;;;;5089813;28;20477;-87
2024/01/13 10:21:29;;;;;;;9.13;4.50;;;5.40;99.90;;;;;;5090876;28;20071;-86
2024/01/13 10:23:56;;;;;;;8.50;4.70;;;5.50;99.90;;;;;;5091012;28;20024;-87
2024/01/13 10:26:24;;;;;;;6.47;3.97;;;5.50;99.90;;;;;;5091196;28;20021;-86
2024/01/13 10:28:50;;;;;;;9.23;4.20;;;5.50;99.90;;;;;;5092373;28;20024;-86
2024/01/13 10:31:20;;;;;;;15.95;7.18;;;5.50;99.90;;;;;;5092540;28;20479;-86
2024/01/13 10:33:47;;;;;;;11.98;5.60;;;5.50;99.90;;;;;;5097270;28;20043;-87
2024/01/13 10:36:16;;;;;;;11.65;4.72;;;5.60;99.90;;;;;;5098005;28;20498;-86
2024/01/13 10:38:43;;;;;;;12.43;5.93;;;5.60;99.90;;;;;;5095531;28;20028;-86
2024/01/13 10:41:09;;;;;;;9.88;4.95;;;5.60;99.90;;;;;;5094524;28;20031;-86
2024/01/13 10:43:43;;;;;;;8.98;4.65;;;5.60;99.90;;;;;;5094782;28;20024;-87
2024/01/13 10:46:11;;;;;;;10.30;5.03;;;5.70;99.90;;;;;;5100575;28;20067;-87
2024/01/13 10:48:45;;;;;;;10.68;4.47;;;5.70;99.90;;;;;;5108191;28;20386;-87
2024/01/13 10:51:34;;;;;;;10.88;5.25;;;5.80;99.90;;;;;;5105374;28;20018;-89
2024/01/13 10:54:02;;;;;;;10.77;4.53;;;5.90;99.90;;;;;;5106325;28;20039;-87
2024/01/13 10:56:31;;;;;;;8.23;4.90;;;6.10;99.90;;;;;;5103260;28;20027;-89
2024/01/13 10:58:58;;;;;;;7.63;3.90;;;6.50;99.90;;;;;;5103480;28;20039;-88
2024/01/13 11:01:27;;;;;;;13.10;4.70;;;6.80;99.90;;;;;;5106036;28;20110;-88
2024/01/13 11:03:54;;;;;;;6.72;3.95;;;7.20;99.90;;;;;;5100125;28;20023;-88
2024/01/13 11:06:23;;;;;;;6.85;3.60;;;7.60;99.90;;;;;;5104636;28;20044;-87
2024/01/13 11:08:50;;;;;;;6.63;3.60;;;7.90;99.90;;;;;;5103625;28;20031;-87
2024/01/13 11:11:29;;;;;;;9.70;4.05;;;8.00;99.90;;;;;;5104845;28;20051;-89
2024/01/13 11:14:21;;;;;;;6.30;3.47;;;8.20;99.90;;;;;;5103370;28;20081;-89
2024/01/13 11:16:47;;;;;;;6.70;3.70;;;8.50;99.90;;;;;;5105521;28;20024;-87
2024/01/13 11:19:13;;;;;;;6.57;3.45;;;8.60;99.90;;;;;;5102956;28;20024;-87
2024/01/13 11:21:41;;;;;;;7.43;3.67;;;8.70;99.90;;;;;;5104174;28;20130;-87
2024/01/13 11:24:14;;;;;;;6.78;3.80;;;8.60;99.90;;;;;;5103427;28;20051;-89
2024/01/13 11:26:49;;;;;;;7.93;4.53;;;8.40;99.90;;;;;;5104883;28;20012;-87
2024/01/13 11:29:24;;;;;;;7.75;3.90;;;8.20;99.90;;;;;;5106773;28;20034;-87
2024/01/13 11:32:00;;;;;;;6.18;3.28;;;8.10;99.90;;;;;;5103551;28;20111;-87
2024/01/13 11:34:29;;;;;;;6.82;3.50;;;8.00;99.90;;;;;;5106726;28;20028;-87
2024/01/13 11:36:59;;;;;;;6.38;3.30;;;7.90;99.90;;;;;;5101556;28;20032;-88
2024/01/13 11:39:25;;;;;;;6.65;3.65;;;7.90;99.90;;;;;;5107561;28;20047;-87
2024/01/13 11:41:55;;;;;;;7.72;3.55;;;7.70;99.90;;;;;;5106484;28;20023;-87
2024/01/13 11:44:44;;;;;;;8.25;3.67;;;7.60;99.90;;;;;;5102916;28;20070;-87
2024/01/13 11:47:12;;;;;;;6.05;3.33;;;7.60;99.90;;;;;;5095035;28;20020;-87
2024/01/13 11:49:38;;;;;;;8.43;3.25;;;7.80;99.90;;;;;;5104132;28;20023;-87
2024/01/13 11:52:06;;;;;;;5.85;3.13;;;8.00;99.90;;;;;;5104520;28;20130;-86
2024/01/13 11:54:34;;;;;;;7.43;3.63;;;8.20;99.90;;;;;;5104161;28;20123;-86
2024/01/13 11:57:03;;;;;;;5.47;3.17;;;8.50;99.90;;;;;;5093556;28;20028;-87
2024/01/13 11:59:29;;;;;;;5.20;3.28;;;8.60;99.90;;;;;;5098201;28;20407;-88
2024/01/13 12:01:56;;;;;;;4.50;2.85;;;8.80;99.90;;;;;;5113537;28;20027;-87
2024/01/13 12:04:24;;;;;;;7.68;2.90;;;9.30;99.90;;;;;;5110471;28;20024;-87
2024/01/13 12:06:53;;;;;;;5.53;2.95;;;9.80;99.90;;;;;;5094733;28;20083;-89
2024/01/13 12:09:24;;;;;;;3.47;2.38;;;10.40;99.90;;;;;;5103242;28;20024;-86
2024/01/13 12:11:57;;;;;;;6.28;3.00;;;11.00;99.90;;;;;;5094716;28;20027;-87
2024/01/13 12:14:30;;;;;;;8.38;2.92;;;11.40;99.90;;;;;;5091466;28;20035;-88
2024/01/13 12:16:58;;;;;;;4.45;2.60;;;11.70;99.90;;;;;;5097398;28;20088;-87
2024/01/13 12:19:29;;;;;;;2.92;1.98;;;12.10;99.90;;;;;;5112830;28;20444;-86
2024/01/13 12:21:55;;;;;;;4.32;1.98;;;12.40;99.90;;;;;;5112142;28;20135;-86
2024/01/13 12:24:32;;;;;;;3.90;2.13;;;12.70;99.90;;;;;;5112185;28;20081;-87
2024/01/13 12:26:58;;;;;;;6.55;3.28;;;13.00;99.90;;;;;;5112080;28;20027;-87
2024/01/13 12:29:29;;;;;;;5.22;2.58;;;13.20;99.90;;;;;;5103904;28;20027;-87
2024/01/13 12:32:03;;;;;;;6.47;2.35;;;13.60;99.90;;;;;;5091647;28;20028;-87
2024/01/13 12:34:31;;;;;;;5.57;2.58;;;13.80;99.90;;;;;;5091992;28;20046;-87
2024/01/13 12:36:57;;;;;;;5.32;2.63;;;14.00;99.90;;;;;;5092153;28;20028;-87
2024/01/13 12:39:24;;;;;;;5.05;2.28;;;14.40;99.90;;;;;;5091135;28;20042;-87
2024/01/13 12:41:51;;;;;;;6.57;2.40;;;14.90;99.90;;;;;;5092404;28;20024;-87
2024/01/13 12:44:17;;;;;;;4.18;2.28;;;15.30;99.30;;;;;;5112793;28;20030;-89
2024/01/13 12:46:43;;;;;;;6.38;2.17;;;15.60;97.10;;;;;;5112982;28;20385;-87
2024/01/13 12:49:17;;;;;;;2.70;1.85;;;15.90;95.60;;;;;;5112754;28;20473;-87
2024/01/13 12:51:44;;;;;;;5.43;1.50;;;16.10;93.70;;;;;;5112886;28;20038;-87
2024/01/13 12:54:14;;;;;;;9.55;2.60;;;16.20;92.50;;;;;;5112405;28;20496;-87